Time;durP1;ratioP1;P1;durP2;ratioP2;P2;SDS_P1;SDS_P2;PMS_P1;PMS_P2;Temp;Humidity;BMP_temperature;BMP_pressure;BME280_temperature;BME280_humidity;BME280_pressure;Samples;Min_cycle;Max_cycle;Signal;HPM_P1;HPM_P2
2023/01/24 00:02:25;;;;;;;;;28.00;25.00;;;;;3.49;64.00;102757.00;4997302;28;46188;-63
2023/01/24 00:04:50;;;;;;;;;35.60;27.00;;;;;3.56;64.52;102771.84;5030716;28;45415;-61
2023/01/24 00:07:16;;;;;;;;;27.75;25.25;;;;;3.24;63.68;102701.84;5000736;28;45933;-61
2023/01/24 00:09:41;;;;;;;;;35.50;29.75;;;;;3.66;64.00;102770.19;5033098;28;46097;-62
2023/01/24 00:12:07;;;;;;;;;36.00;30.75;;;;;3.67;64.15;102771.03;5032560;28;46460;-62
2023/01/24 00:14:51;;;;;;;;;34.25;29.50;;;;;3.70;63.78;102759.97;5013055;28;45462;-64
2023/01/24 00:17:17;;;;;;;;;38.00;29.20;;;;;3.49;63.71;102729.84;5016400;28;46012;-62
2023/01/24 00:19:42;;;;;;;;;35.75;29.50;;;;;3.50;64.44;102759.63;5032724;28;45469;-59
2023/01/24 00:22:08;;;;;;;;;31.50;29.75;;;;;3.55;64.56;102764.69;5004927;28;45808;-62
2023/01/24 00:24:34;;;;;;;;;36.25;30.25;;;;;3.60;64.13;102764.34;5013909;28;45698;-63
2023/01/24 00:27:01;;;;;;;;;36.40;32.00;;;;;3.45;64.63;102731.06;5031596;28;45499;-63
2023/01/24 00:29:27;;;;;;;;;34.50;29.50;;;;;3.62;64.82;102760.53;5014702;28;45672;-63
2023/01/24 00:31:52;;;;;;;;;34.50;29.00;;;;;3.51;64.67;102741.47;5013939;28;45425;-60
2023/01/24 00:34:18;;;;;;;;;39.50;30.25;;;;;3.56;65.22;102765.56;5013176;28;45759;-62
2023/01/24 00:36:43;;;;;;;;;43.25;30.50;;;;;3.57;65.02;102748.28;5032275;28;45375;-62
2023/01/24 00:39:10;;;;;;;;;31.50;25.75;;;;;3.60;64.99;102753.47;5030201;28;45418;-62
2023/01/24 00:41:36;;;;;;;;;40.80;30.60;;;;;3.57;64.88;102753.72;5013959;28;47906;-62
2023/01/24 00:44:01;;;;;;;;;42.50;30.75;;;;;3.60;64.59;102738.06;5031803;28;45969;-61
2023/01/24 00:46:27;;;;;;;;;33.75;29.75;;;;;3.69;64.54;102744.66;5031659;28;45450;-63
2023/01/24 00:48:52;;;;;;;;;42.75;32.50;;;;;3.74;64.50;102749.72;5031770;28;45461;-62
2023/01/24 00:51:18;;;;;;;;;45.00;38.25;;;;;3.75;64.71;102741.44;5030899;28;45926;-63
2023/01/24 00:53:43;;;;;;;;;42.00;32.75;;;;;3.76;65.52;102747.75;5013735;28;45421;-61
2023/01/24 00:56:09;;;;;;;;;42.25;31.75;;;;;3.79;64.71;102753.81;5031458;28;45895;-63
2023/01/24 00:58:35;;;;;;;;;42.50;32.00;;;;;3.72;64.82;102752.56;4981117;28;45668;-62
2023/01/24 01:01:03;;;;;;;;;48.25;35.25;;;;;3.72;64.18;102757.09;5031570;28;45785;-63
2023/01/24 01:03:31;;;;;;;;;36.20;30.40;;;;;3.68;64.68;102755.63;5013017;28;45780;-62
2023/01/24 01:06:07;;;;;;;;;49.40;37.60;;;;;3.65;64.96;102746.75;5013819;28;45495;-65
2023/01/24 01:08:33;;;;;;;;;46.00;38.60;;;;;3.58;64.99;102742.72;4982621;28;45788;-65
2023/01/24 01:10:59;;;;;;;;;32.50;24.50;;;;;3.61;64.40;102749.78;5013666;28;45969;-65
2023/01/24 01:13:25;;;;;;;;;38.25;33.50;;;;;3.58;64.81;102750.03;5013013;28;45594;-65
2023/01/24 01:15:51;;;;;;;;;37.25;28.00;;;;;3.53;65.53;102750.38;5030560;28;45498;-63
2023/01/24 01:18:16;;;;;;;;;37.00;29.75;;;;;3.54;64.69;102762.97;5031574;28;45557;-66
2023/01/24 01:20:48;;;;;;;;;34.75;29.50;;;;;3.52;65.13;102752.22;5013316;28;48318;-65
2023/01/24 01:23:16;;;;;;;;;33.40;30.20;;;;;3.48;65.01;102760.72;5020333;28;45531;-64
2023/01/24 01:25:42;;;;;;;;;39.00;30.80;;;;;3.49;65.32;102759.72;4995680;28;45507;-60
2023/01/24 01:28:09;;;;;;;;;37.25;29.00;;;;;3.55;65.00;102771.97;5031254;28;45443;-61
2023/01/24 01:30:34;;;;;;;;;42.80;33.20;;;;;3.51;64.90;102771.31;5031150;28;45440;-61
2023/01/24 01:33:00;;;;;;;;;34.50;30.75;;;;;3.56;65.42;102774.56;4996468;28;45495;-62
2023/01/24 01:35:25;;;;;;;;;40.75;35.25;;;;;3.42;65.45;102777.47;5030917;28;45391;-63
2023/01/24 01:37:51;;;;;;;;;43.75;34.75;;;;;3.32;65.98;102764.59;5030539;28;45718;-61
2023/01/24 01:40:18;;;;;;;;;38.20;30.00;;;;;3.23;66.05;102738.09;5011684;28;45643;-62
2023/01/24 01:42:51;;;;;;;;;42.20;31.60;;;;;3.37;66.04;102767.81;5030901;28;45772;-62
2023/01/24 01:45:38;;;;;;;;;46.40;35.80;;;;;3.48;65.44;102775.13;5030284;28;45343;-59
2023/01/24 01:48:22;;;;;;;;;45.40;42.20;;;;;3.50;65.23;102772.31;5007767;28;45486;-61
2023/01/24 01:50:57;;;;;;;;;44.60;33.60;;;;;3.50;66.05;102773.19;5015223;28;46751;-59
2023/01/24 01:53:24;;;;;;;;;50.00;39.40;;;;;3.55;65.84;102772.84;5029331;28;46395;-61
2023/01/24 01:55:53;;;;;;;;;35.80;33.40;;;;;3.60;65.18;102772.50;4997158;28;45490;-61
2023/01/24 01:58:19;;;;;;;;;44.60;36.40;;;;;3.58;65.70;102755.47;5030161;28;45375;-59
2023/01/24 02:00:49;;;;;;;;;51.00;36.75;;;;;3.62;65.19;102760.53;5030208;28;46054;-57
2023/01/24 02:05:59;;;;;;;;;45.40;34.60;;;;;3.55;65.20;102753.84;5014339;28;45419;-59
2023/01/24 02:08:25;;;;;;;;;39.00;35.00;;;;;3.47;65.24;102770.69;5015272;28;45419;-57
2023/01/24 02:13:38;;;;;;;;;49.00;38.20;;;;;3.35;65.66;102760.75;5027631;28;45386;-60
2023/01/24 02:16:05;;;;;;;;;48.00;38.40;;;;;3.53;65.87;102777.53;5030046;28;45338;-61
2023/01/24 02:18:31;;;;;;;;;50.50;31.00;;;;;3.36;65.47;102751.66;5014118;28;45620;-60
2023/01/24 02:20:57;;;;;;;;;44.75;38.25;;;;;3.53;65.96;102791.09;5013329;28;45983;-61
2023/01/24 02:23:46;;;;;;;;;44.75;40.50;;;;;3.59;65.24;102790.66;5014920;28;45733;-60
2023/01/24 02:26:17;;;;;;;;;45.60;35.60;;;;;3.50;65.11;102796.75;5015287;28;45362;-61
2023/01/24 02:28:53;;;;;;;;;41.00;33.75;;;;;3.44;65.21;102789.94;5013183;28;45339;-60
2023/01/24 02:31:19;;;;;;;;;38.00;32.60;;;;;2.74;65.64;102691.03;5014940;28;46665;-61
2023/01/24 02:33:45;;;;;;;;;46.50;34.50;;;;;3.29;65.80;102778.38;5029712;28;45373;-61
2023/01/24 02:36:28;;;;;;;;;45.25;36.75;;;;;3.31;66.31;102787.25;5030020;28;45555;-61
2023/01/24 02:39:12;;;;;;;;;44.00;33.25;;;;;3.38;66.03;102785.81;5012525;28;45499;-58
2023/01/24 02:42:07;;;;;;;;;49.60;41.40;;;;;3.42;65.34;102777.47;4996802;28;45513;-60
2023/01/24 02:44:49;;;;;;;;;35.60;29.80;;;;;3.47;65.28;102778.84;5016472;28;45497;-60
2023/01/24 02:47:14;;;;;;;;;42.40;34.20;;;;;3.28;65.29;102754.94;5034302;28;45225;-60
2023/01/24 02:49:40;;;;;;;;;40.75;34.75;;;;;3.18;65.25;102760.16;5000578;28;45740;-59
2023/01/24 02:54:53;;;;;;;;;42.00;37.40;;;;;3.30;64.87;102774.66;5013677;28;45951;-60
2023/01/24 03:00:06;;;;;;;;;50.50;34.00;;;;;3.32;65.29;102782.72;5008740;28;45467;-60
2023/01/24 03:02:31;;;;;;;;;37.25;33.00;;;;;3.26;65.12;102770.47;5020133;28;46262;-60
2023/01/24 03:04:57;;;;;;;;;37.00;31.50;;;;;3.21;65.10;102765.34;5037459;28;45389;-58
2023/01/24 03:07:22;;;;;;;;;53.50;40.25;;;;;3.27;65.21;102774.03;5038250;28;45398;-60
2023/01/24 03:09:48;;;;;;;;;46.25;34.25;;;;;3.24;65.08;102767.84;5038391;28;45209;-57
2023/01/24 03:36:51;;;;;;;;;44.00;35.00;;;;;3.16;65.74;102766.69;5037602;28;45351;-59
2023/01/24 03:42:00;;;;;;;;;44.40;31.00;;;;;3.10;65.33;102768.88;5038012;28;45386;-59
2023/01/24 03:44:26;;;;;;;;;47.25;37.75;;;;;3.16;65.28;102767.56;5036754;28;45362;-59
2023/01/24 03:46:51;;;;;;;;;42.75;36.50;;;;;3.10;65.79;102774.28;5019178;28;45439;-59
2023/01/24 03:49:17;;;;;;;;;43.25;36.75;;;;;3.06;66.17;102783.66;5037046;28;45401;-60
2023/01/24 03:54:27;;;;;;;;;40.60;38.20;;;;;3.08;65.55;102776.25;5036838;28;45381;-59
2023/01/24 03:56:53;;;;;;;;;45.00;34.50;;;;;3.03;65.90;102767.59;5019154;28;45515;-59
2023/01/24 03:59:18;;;;;;;;;43.50;40.75;;;;;2.93;65.90;102751.09;5037185;28;45314;-59
2023/01/24 04:01:44;;;;;;;;;40.50;33.50;;;;;3.10;65.86;102765.31;5037175;28;45458;-58
2023/01/24 04:04:11;;;;;;;;;42.75;34.00;;;;;2.88;65.84;102760.56;5037143;28;45389;-56
2023/01/24 04:06:37;;;;;;;;;43.80;34.80;;;;;2.96;66.16;102777.16;5036508;28;45434;-60
2023/01/24 04:09:02;;;;;;;;;36.75;32.00;;;;;2.96;65.79;102769.00;5036372;28;45368;-58
2023/01/24 04:11:28;;;;;;;;;46.50;41.25;;;;;2.99;65.77;102776.94;5035317;28;45631;-60
2023/01/24 04:13:53;;;;;;;;;45.25;38.75;;;;;3.00;66.06;102789.53;5036650;28;45217;-59
2023/01/24 04:16:19;;;;;;;;;39.00;35.50;;;;;2.79;66.15;102746.72;5036672;28;45349;-59
2023/01/24 04:18:44;;;;;;;;;36.75;32.50;;;;;2.98;65.99;102772.47;5018982;28;45344;-57
2023/01/24 04:21:10;;;;;;;;;51.25;40.50;;;;;2.89;65.54;102775.88;5019020;28;45261;-58
2023/01/24 04:23:37;;;;;;;;;42.25;36.50;;;;;2.90;66.45;102764.03;5018396;28;47114;-59
2023/01/24 04:26:03;;;;;;;;;41.60;35.80;;;;;2.98;66.28;102772.47;5036629;28;45585;-60
2023/01/24 04:28:30;;;;;;;;;37.25;29.50;;;;;3.02;66.07;102760.44;5037006;28;45408;-60
2023/01/24 04:30:59;;;;;;;;;42.50;34.25;;;;;3.07;65.65;102777.25;5036757;28;45386;-60
2023/01/24 04:33:25;;;;;;;;;39.80;32.20;;;;;3.05;65.41;102781.91;5036199;28;45646;-59
2023/01/24 04:35:51;;;;;;;;;49.75;40.50;;;;;3.05;66.20;102779.19;5036245;28;45567;-59
2023/01/24 04:38:16;;;;;;;;;47.50;40.75;;;;;3.06;65.44;102778.22;5036406;28;45331;-59
2023/01/24 04:40:42;;;;;;;;;45.25;35.75;;;;;2.98;65.48;102781.50;5018829;28;45718;-59
2023/01/24 04:43:07;;;;;;;;;43.00;35.00;;;;;2.97;66.11;102777.03;5036513;28;46028;-59
2023/01/24 04:45:33;;;;;;;;;43.75;35.50;;;;;2.94;66.21;102762.84;5035684;28;45347;-59
2023/01/24 04:47:58;;;;;;;;;46.75;39.50;;;;;2.88;66.40;102766.00;5018370;28;45449;-59
2023/01/24 04:50:24;;;;;;;;;35.00;30.75;;;;;2.89;66.63;102795.72;5018211;28;45605;-59
2023/01/24 04:52:49;;;;;;;;;47.75;42.00;;;;;2.35;66.07;102694.66;5035810;28;45384;-59
2023/01/24 04:55:15;;;;;;;;;39.25;37.75;;;;;2.13;66.62;102671.81;5036099;28;45485;-59
2023/01/24 04:57:40;;;;;;;;;38.50;36.00;;;;;2.90;66.75;102785.72;5035749;28;45445;-60
2023/01/24 05:00:08;;;;;;;;;42.00;35.50;;;;;3.02;66.34;102786.69;5036142;28;45460;-58
2023/01/24 05:02:33;;;;;;;;;42.50;38.50;;;;;2.74;66.55;102756.13;5035810;28;47089;-57
2023/01/24 05:04:59;;;;;;;;;40.75;35.00;;;;;2.92;66.63;102798.22;5017842;28;45368;-60
2023/01/24 05:07:24;;;;;;;;;46.50;38.00;;;;;2.95;66.88;102788.97;5018081;28;45352;-59
2023/01/24 05:09:50;;;;;;;;;46.00;37.50;;;;;2.76;66.92;102760.47;5035733;28;45542;-60
2023/01/24 05:12:15;;;;;;;;;48.75;36.75;;;;;2.84;67.06;102798.75;5017776;28;45521;-60
2023/01/24 05:14:41;;;;;;;;;45.25;38.00;;;;;2.81;67.24;102801.69;5035748;28;45389;-60
2023/01/24 05:17:06;;;;;;;;;39.00;35.75;;;;;2.83;67.54;102794.31;5035702;28;45192;-59
2023/01/24 05:19:32;;;;;;;;;48.00;37.25;;;;;2.84;66.65;102803.31;5018154;28;45525;-58
2023/01/24 05:21:58;;;;;;;;;40.00;33.25;;;;;2.90;66.63;102804.72;5017259;28;45638;-60
2023/01/24 05:24:23;;;;;;;;;43.25;39.50;;;;;2.93;66.80;102805.38;5017437;28;45602;-59
2023/01/24 05:26:49;;;;;;;;;49.75;37.75;;;;;2.92;67.01;102797.31;5035557;28;45356;-59
2023/01/24 05:29:14;;;;;;;;;41.25;35.75;;;;;2.99;66.95;102812.22;5001500;28;45440;-59
2023/01/24 05:31:40;;;;;;;;;49.00;39.75;;;;;3.09;66.89;102806.97;5035248;28;46195;-56
2023/01/24 05:34:05;;;;;;;;;64.00;43.25;;;;;2.98;66.80;102777.91;5017387;28;45419;-55
2023/01/24 05:36:31;;;;;;;;;40.50;36.00;;;;;3.20;66.63;102809.75;5002575;28;46243;-59
2023/01/24 05:38:56;;;;;;;;;46.25;38.50;;;;;3.14;66.03;102806.66;5035202;28;45488;-59
2023/01/24 05:41:22;;;;;;;;;58.75;41.25;;;;;3.00;66.20;102815.78;5017178;28;45721;-61
2023/01/24 05:43:47;;;;;;;;;40.75;35.00;;;;;3.02;66.40;102811.97;5035430;28;45295;-60
2023/01/24 05:46:19;;;;;;;;;50.25;43.25;;;;;2.95;66.90;102797.13;5034899;28;45216;-59
2023/01/24 05:48:45;;;;;;;;;40.75;37.00;;;;;2.99;67.32;102814.94;5035535;28;45423;-60
2023/01/24 05:51:12;;;;;;;;;41.00;34.00;;;;;2.96;66.72;102818.72;5017208;28;46477;-60
2023/01/24 05:53:38;;;;;;;;;44.60;39.20;;;;;3.02;66.67;102820.13;5017759;28;45271;-60
2023/01/24 05:56:14;;;;;;;;;39.40;34.00;;;;;3.04;66.67;102823.56;5035057;28;45398;-59
2023/01/24 05:58:40;;;;;;;;;50.50;35.00;;;;;2.60;67.09;102763.41;5034386;28;45537;-59
2023/01/24 06:01:10;;;;;;;;;38.75;32.00;;;;;2.91;67.47;102820.00;5034732;28;46845;-59
2023/01/24 06:03:40;;;;;;;;;45.60;37.40;;;;;2.78;67.04;102812.75;5018171;28;45876;-59
2023/01/24 06:06:06;;;;;;;;;52.25;39.75;;;;;2.72;67.70;102818.59;5035136;28;45265;-59
2023/01/24 06:08:32;;;;;;;;;52.25;39.25;;;;;2.79;67.75;102810.91;5035573;28;46159;-59
2023/01/24 06:11:17;;;;;;;;;51.50;34.75;;;;;2.69;67.99;102817.00;5035045;28;46517;-59
2023/01/24 06:13:43;;;;;;;;;39.00;32.60;;;;;2.75;68.13;102818.41;5017047;28;45530;-59
2023/01/24 06:16:16;;;;;;;;;53.75;39.50;;;;;2.27;67.68;102724.16;5034878;28;45429;-60
2023/01/24 06:18:42;;;;;;;;;44.25;39.75;;;;;2.83;67.36;102826.84;5035469;28;45485;-60
2023/01/24 06:21:44;;;;;;;;;49.75;38.75;;;;;2.90;67.08;102823.72;5016709;28;47043;-60
2023/01/24 06:24:19;;;;;;;;;40.40;34.40;;;;;2.94;67.55;102827.94;5019743;28;45288;-62
2023/01/24 06:26:45;;;;;;;;;50.75;41.50;;;;;2.97;67.68;102825.88;5017133;28;45403;-60
2023/01/24 06:29:11;;;;;;;;;39.25;38.75;;;;;2.69;66.88;102789.88;5035363;28;45541;-61
2023/01/24 06:32:04;;;;;;;;;36.50;33.00;;;;;2.84;67.23;102823.16;5016930;28;47600;-60
2023/01/24 06:34:57;;;;;;;;;39.80;34.20;;;;;2.78;67.27;102812.75;5038077;28;45292;-61
2023/01/24 06:37:46;;;;;;;;;40.00;38.80;;;;;2.96;67.26;102826.88;5038334;28;45355;-60
2023/01/24 06:40:12;;;;;;;;;49.50;37.50;;;;;2.95;66.98;102824.25;5038857;28;45276;-60
2023/01/24 06:42:38;;;;;;;;;37.75;33.50;;;;;3.01;66.57;102820.22;5020223;28;46516;-60
2023/01/24 06:45:05;;;;;;;;;45.50;39.75;;;;;3.00;66.78;102826.63;4983796;28;45482;-61
2023/01/24 06:47:31;;;;;;;;;52.75;41.50;;;;;2.81;66.82;102799.00;5033348;28;45528;-61
2023/01/24 06:49:56;;;;;;;;;44.50;37.75;;;;;3.07;66.96;102842.38;5018555;28;45739;-60
2023/01/24 06:52:22;;;;;;;;;41.75;38.00;;;;;3.10;66.75;102838.56;5017982;28;46417;-60
2023/01/24 06:54:47;;;;;;;;;44.50;39.25;;;;;2.91;66.91;102807.34;5018068;28;45466;-60
2023/01/24 06:57:13;;;;;;;;;62.25;41.25;;;;;3.14;66.25;102833.78;5018198;28;45482;-60
2023/01/24 06:59:38;;;;;;;;;48.75;37.50;;;;;3.14;66.84;102848.19;5018417;28;45351;-60
2023/01/24 07:02:04;;;;;;;;;47.50;41.75;;;;;3.14;66.72;102850.06;5000042;28;46128;-60
2023/01/24 07:04:29;;;;;;;;;52.50;40.25;;;;;3.10;67.11;102842.13;5018242;28;45399;-61
2023/01/24 07:06:55;;;;;;;;;52.50;41.50;;;;;3.16;66.94;102848.09;5017852;28;45205;-60
2023/01/24 07:09:21;;;;;;;;;49.50;42.00;;;;;3.07;67.31;102853.22;5033661;28;45436;-61
2023/01/24 07:11:49;;;;;;;;;49.25;40.50;;;;;3.00;67.45;102838.38;5017631;28;45447;-60
2023/01/24 07:14:15;;;;;;;;;54.80;42.40;;;;;3.11;67.45;102852.00;5017826;28;45358;-60
2023/01/24 07:16:41;;;;;;;;;52.50;41.75;;;;;3.17;67.30;102852.53;4983364;28;45432;-61
2023/01/24 07:19:10;;;;;;;;;47.50;41.25;;;;;3.08;67.05;102835.97;5034066;28;45434;-60
2023/01/24 07:21:37;;;;;;;;;50.75;44.25;;;;;3.17;67.08;102857.97;5016222;28;46163;-61
2023/01/24 07:24:03;;;;;;;;;59.00;45.20;;;;;3.14;67.40;102858.22;5016240;28;45354;-60
2023/01/24 07:26:28;;;;;;;;;54.50;45.00;;;;;3.10;67.29;102861.13;5000220;28;45503;-57
2023/01/24 07:28:54;;;;;;;;;44.00;37.50;;;;;3.09;67.43;102859.41;5032904;28;45468;-55
2023/01/24 07:31:20;;;;;;;;;51.50;43.25;;;;;3.10;67.44;102868.41;5034841;28;45918;-60
2023/01/24 07:33:45;;;;;;;;;57.00;46.50;;;;;3.15;67.14;102868.09;5036531;28;45581;-59
2023/01/24 07:36:14;;;;;;;;;45.00;39.50;;;;;2.99;67.32;102831.22;5018874;28;45346;-60
2023/01/24 07:38:40;;;;;;;;;46.25;39.25;;;;;2.97;66.91;102830.44;5034489;28;45531;-61
2023/01/24 07:41:09;;;;;;;;;66.00;45.25;;;;;2.95;67.84;102835.09;5019500;28;46227;-60
2023/01/24 07:43:35;;;;;;;;;53.60;41.20;;;;;3.04;67.93;102877.84;5019445;28;45452;-60
2023/01/24 07:46:00;;;;;;;;;58.75;42.25;;;;;3.07;68.16;102879.47;5036745;28;45232;-60
2023/01/24 07:48:26;;;;;;;;;56.75;41.00;;;;;3.09;67.86;102889.25;5019465;28;45556;-59
2023/01/24 07:50:51;;;;;;;;;53.75;37.75;;;;;3.08;68.01;102886.63;5018758;28;45568;-58
2023/01/24 07:53:17;;;;;;;;;55.50;45.00;;;;;3.13;68.14;102887.19;5037287;28;45426;-59
2023/01/24 07:55:42;;;;;;;;;45.25;39.00;;;;;3.15;67.95;102889.78;5037103;28;45329;-60
2023/01/24 07:58:08;;;;;;;;;54.25;43.25;;;;;3.16;68.02;102894.22;5037125;28;45191;-57
2023/01/24 08:00:33;;;;;;;;;47.75;42.50;;;;;3.18;68.26;102894.97;5018953;28;45439;-59
2023/01/24 08:02:59;;;;;;;;;49.00;42.50;;;;;3.21;67.37;102902.91;5018901;28;45435;-58
2023/01/24 08:05:24;;;;;;;;;46.00;40.50;;;;;3.22;67.57;102891.09;5019193;28;45315;-60
2023/01/24 08:07:50;;;;;;;;;59.25;45.25;;;;;3.18;67.92;102901.28;5037233;28;45453;-60
2023/01/24 08:10:16;;;;;;;;;62.50;46.50;;;;;3.22;68.00;102904.66;5036608;28;45335;-60
2023/01/24 08:12:41;;;;;;;;;53.50;43.50;;;;;3.22;67.99;102901.94;5036441;28;45278;-61
2023/01/24 08:15:07;;;;;;;;;60.25;46.75;;;;;3.15;68.05;102897.94;5036842;28;45411;-60
2023/01/24 08:17:35;;;;;;;;;60.50;46.75;;;;;3.12;68.13;102907.16;5036578;28;45560;-56
2023/01/24 08:20:00;;;;;;;;;50.00;42.60;;;;;3.15;67.84;102909.63;5036626;28;46168;-58
2023/01/24 08:22:26;;;;;;;;;51.50;43.50;;;;;2.98;68.10;102890.00;5036621;28;45370;-59
2023/01/24 08:24:51;;;;;;;;;57.50;46.75;;;;;3.01;68.55;102909.75;5035186;28;45441;-60
2023/01/24 08:27:17;;;;;;;;;60.00;44.00;;;;;3.05;68.34;102903.16;5036587;28;45351;-60
2023/01/24 08:29:43;;;;;;;;;59.75;46.25;;;;;2.78;68.32;102839.03;5036485;28;45649;-61
2023/01/24 08:32:08;;;;;;;;;47.50;38.25;;;;;3.07;67.75;102893.94;5027428;28;45415;-61
2023/01/24 08:34:34;;;;;;;;;59.50;44.75;;;;;3.10;68.06;102901.81;5031652;28;45858;-60
2023/01/24 08:36:59;;;;;;;;;38.50;30.25;;;;;3.10;68.23;102911.84;5035255;28;45440;-60
2023/01/24 08:39:25;;;;;;;;;56.75;43.50;;;;;3.21;68.18;102917.34;5036440;28;46377;-60
2023/01/24 08:41:50;;;;;;;;;61.50;44.25;;;;;3.21;67.91;102913.78;5018475;28;45359;-60
2023/01/24 08:44:16;;;;;;;;;60.25;46.25;;;;;3.22;67.82;102915.50;5018369;28;45792;-56
2023/01/24 08:46:42;;;;;;;;;55.25;44.25;;;;;3.24;67.60;102924.41;5034938;28;45382;-58
2023/01/24 08:49:09;;;;;;;;;66.00;48.00;;;;;3.22;67.79;102923.66;5036081;28;46022;-59
2023/01/24 08:51:34;;;;;;;;;50.80;37.80;;;;;3.20;67.60;102931.03;5036144;28;45437;-61
2023/01/24 08:54:00;;;;;;;;;58.00;44.50;;;;;3.15;68.03;102935.94;5036238;28;45412;-60
2023/01/24 08:56:26;;;;;;;;;61.50;46.50;;;;;3.08;67.97;102940.91;5006861;28;45309;-60
2023/01/24 08:58:51;;;;;;;;;55.00;44.75;;;;;2.99;68.33;102923.44;5001792;28;47276;-60
2023/01/24 09:01:17;;;;;;;;;53.75;41.75;;;;;3.06;68.35;102930.19;5018091;28;45657;-60
2023/01/24 09:03:42;;;;;;;;;50.25;41.00;;;;;3.10;68.28;102934.41;5036511;28;45423;-61
2023/01/24 09:06:08;;;;;;;;;60.50;47.25;;;;;3.09;68.39;102924.53;5036627;28;45623;-59
2023/01/24 09:08:33;;;;;;;;;35.75;22.50;;;;;3.15;68.34;102942.19;5035944;28;46142;-60
2023/01/24 09:11:00;;;;;;;;;51.50;42.25;;;;;2.55;68.82;102830.66;5036544;28;45280;-60
2023/01/24 09:13:26;;;;;;;;;45.20;38.40;;;;;3.07;68.16;102922.88;5018164;28;45878;-60
2023/01/24 09:15:52;;;;;;;;;60.75;48.50;;;;;3.16;68.02;102935.81;5018511;28;45359;-59
2023/01/24 09:18:17;;;;;;;;;55.00;46.75;;;;;3.21;68.40;102943.63;4983378;28;45428;-60
2023/01/24 09:20:43;;;;;;;;;60.50;46.75;;;;;3.24;68.52;102947.00;5034542;28;45634;-60
2023/01/24 09:23:14;;;;;;;;;55.00;45.50;;;;;3.25;67.94;102946.00;5035913;28;45422;-57
2023/01/24 09:25:48;;;;;;;;;62.25;49.50;;;;;3.09;67.88;102913.66;5018031;28;45912;-55
2023/01/24 09:28:13;;;;;;;;;64.75;47.75;;;;;3.18;68.39;102938.41;5000926;28;46182;-59
2023/01/24 09:30:39;;;;;;;;;59.25;45.50;;;;;3.22;68.14;102945.38;5032486;28;45409;-60
2023/01/24 09:33:05;;;;;;;;;68.75;48.25;;;;;3.21;68.18;102949.06;5034386;28;45373;-61
2023/01/24 09:35:31;;;;;;;;;58.25;45.00;;;;;3.21;68.56;102933.63;5026538;28;45582;-66
2023/01/24 09:37:56;;;;;;;;;60.25;46.00;;;;;3.21;68.07;102946.34;5023672;28;46601;-62
2023/01/24 09:40:30;;;;;;;;;61.75;42.25;;;;;3.22;68.57;102945.38;5042845;28;45430;-60
2023/01/24 09:43:04;;;;;;;;;62.25;48.00;;;;;3.31;68.58;102947.41;5033199;28;45291;-61
2023/01/24 09:45:32;;;;;;;;;62.25;45.50;;;;;3.40;67.73;102945.88;5023937;28;45352;-60
2023/01/24 09:48:06;;;;;;;;;58.75;45.25;;;;;3.43;67.97;102948.41;5032433;28;47349;-62
2023/01/24 09:51:00;;;;;;;;;57.40;44.00;;;;;3.47;67.54;102954.47;5032444;28;45405;-60
2023/01/24 09:53:29;;;;;;;;;58.20;45.00;;;;;3.25;67.54;102923.41;5033290;28;45318;-58
2023/01/24 09:55:54;;;;;;;;;58.00;41.25;;;;;3.46;67.51;102963.59;5032743;28;45486;-61
2023/01/24 09:58:31;;;;;;;;;61.00;48.50;;;;;3.44;67.67;102958.28;5030536;28;46018;-58
2023/01/24 10:01:07;;;;;;;;;60.20;45.40;;;;;3.20;67.18;102912.91;5033791;28;45344;-59
2023/01/24 10:03:33;;;;;;;;;64.75;43.75;;;;;3.46;67.72;102969.03;5048592;28;45508;-61
2023/01/24 10:06:01;;;;;;;;;53.25;42.25;;;;;3.41;67.50;102966.63;5045160;28;45476;-60
2023/01/24 10:08:32;;;;;;;;;57.25;43.25;;;;;3.45;67.93;102972.72;5011148;28;46570;-61
2023/01/24 10:11:27;;;;;;;;;65.40;48.00;;;;;3.46;67.33;102972.59;5013397;28;45452;-60
2023/01/24 10:13:58;;;;;;;;;56.60;44.00;;;;;3.48;67.74;102978.78;5013493;28;45385;-60
2023/01/24 10:16:54;;;;;;;;;53.25;41.00;;;;;3.33;67.42;102948.19;5032499;28;45681;-60
2023/01/24 10:19:49;;;;;;;;;61.00;44.25;;;;;3.52;67.31;102976.72;5033735;28;45407;-61
2023/01/24 10:22:42;;;;;;;;;58.60;42.00;;;;;3.51;67.64;102970.44;5033507;28;45417;-61
2023/01/24 10:25:21;;;;;;;;;53.60;43.60;;;;;3.53;67.70;102967.63;5032195;28;45389;-60
2023/01/24 10:27:49;;;;;;;;;58.25;43.25;;;;;3.53;67.20;102967.63;5032527;28;45400;-60
2023/01/24 10:30:21;;;;;;;;;63.00;47.75;;;;;3.55;67.99;102962.94;5028683;28;46706;-60
2023/01/24 10:32:47;;;;;;;;;56.40;43.80;;;;;3.56;67.69;102963.81;5031952;28;45502;-61
2023/01/24 10:35:15;;;;;;;;;56.00;41.00;;;;;3.56;67.53;102956.50;5064899;28;45488;-61
2023/01/24 10:37:42;;;;;;;;;49.25;41.50;;;;;3.52;68.09;102961.31;5066018;28;46069;-60
2023/01/24 10:40:15;;;;;;;;;39.40;33.40;;;;;3.48;67.50;102962.50;5033475;28;46417;-61
2023/01/24 10:42:40;;;;;;;;;56.00;42.80;;;;;3.53;67.79;102959.47;5032061;28;45406;-58
2023/01/24 10:45:22;;;;;;;;;53.25;40.25;;;;;3.53;67.59;102951.31;5031914;28;45422;-61
2023/01/24 10:47:59;;;;;;;;;53.50;43.25;;;;;3.56;68.18;102959.22;5015856;28;45431;-59
2023/01/24 10:50:32;;;;;;;;;39.20;33.80;;;;;3.56;68.53;102953.81;5027473;28;45965;-60
2023/01/24 10:53:14;;;;;;;;;45.60;37.80;;;;;3.25;68.10;102896.28;5017526;28;45358;-60
2023/01/24 10:55:39;;;;;;;;;43.80;40.00;;;;;3.58;67.89;102951.84;5046683;28;45512;-59
2023/01/24 10:58:26;;;;;;;;;50.50;44.00;;;;;3.56;67.84;102942.09;5032897;28;45577;-58
2023/01/24 11:00:58;;;;;;;;;62.25;45.25;;;;;3.57;67.96;102943.81;5032220;28;46006;-60
2023/01/24 11:03:28;;;;;;;;;50.80;40.20;;;;;3.61;67.66;102946.19;5032401;28;45543;-60
2023/01/24 11:05:55;;;;;;;;;54.20;43.00;;;;;3.68;67.56;102945.75;5032149;28;45452;-57
2023/01/24 11:08:22;;;;;;;;;52.75;44.50;;;;;3.63;68.41;102941.50;5015357;28;45546;-64
2023/01/24 11:10:59;;;;;;;;;59.20;44.20;;;;;3.68;68.03;102932.16;5028625;28;51413;-60
2023/01/24 11:13:28;;;;;;;;;59.80;44.00;;;;;3.71;68.28;102942.78;5031309;28;45367;-56
2023/01/24 11:16:16;;;;;;;;;57.20;44.00;;;;;3.73;68.08;102932.72;5030296;28;45733;-61
2023/01/24 11:19:01;;;;;;;;;45.00;40.50;;;;;3.56;67.47;102888.63;5028419;28;45583;-63
2023/01/24 11:21:27;;;;;;;;;45.60;41.20;;;;;3.78;67.79;102925.06;5067051;28;46397;-62
2023/01/24 11:24:05;;;;;;;;;47.00;43.00;;;;;3.75;67.38;102922.59;5049847;28;45423;-62
2023/01/24 11:26:32;;;;;;;;;55.00;42.20;;;;;3.75;68.11;102911.72;5033355;28;45500;-63
2023/01/24 11:29:01;;;;;;;;;51.25;41.00;;;;;3.75;67.99;102909.00;4987691;28;45807;-63
2023/01/24 11:31:33;;;;;;;;;52.75;42.50;;;;;3.78;67.91;102930.50;5033212;28;46767;-64
2023/01/24 11:34:39;;;;;;;;;27.80;23.00;;;;;3.84;67.65;102915.63;5034528;28;45440;-60
2023/01/24 11:37:35;;;;;;;;;44.40;38.40;;;;;3.90;67.40;102909.72;5033702;28;45453;-61
2023/01/24 11:40:07;;;;;;;;;57.50;43.00;;;;;3.87;67.45;102915.38;5034630;28;45420;-64
2023/01/24 11:42:38;;;;;;;;;55.40;44.20;;;;;3.85;67.53;102917.34;5033211;28;45639;-59
2023/01/24 11:45:19;;;;;;;;;47.20;41.00;;;;;3.78;68.05;102909.66;5034601;28;45469;-61
2023/01/24 11:48:23;;;;;;;;;45.20;39.40;;;;;3.83;68.31;102916.59;5034889;28;45412;-62
2023/01/24 11:50:53;;;;;;;;;41.75;39.25;;;;;3.89;67.49;102908.00;5035847;28;45626;-62
2023/01/24 11:53:31;;;;;;;;;46.80;38.60;;;;;3.76;67.24;102870.88;5016584;28;45795;-64
2023/01/24 11:56:23;;;;;;;;;52.20;40.80;;;;;4.11;66.80;102903.66;5067797;28;45444;-64
2023/01/24 11:59:16;;;;;;;;;50.80;41.00;;;;;3.63;66.86;102803.00;5025787;28;45629;-62
2023/01/24 12:02:06;;;;;;;;;54.75;39.25;;;;;4.06;66.60;102879.53;5034306;28;45508;-61
2023/01/24 12:04:46;;;;;;;;;50.80;41.80;;;;;4.16;66.45;102888.72;5017070;28;45566;-61
2023/01/24 12:07:44;;;;;;;;;36.00;31.80;;;;;4.17;67.31;102887.72;5034669;28;45280;-58
2023/01/24 12:10:31;;;;;;;;;45.00;39.00;;;;;4.10;67.40;102882.91;4981574;28;46714;-60